createdAt,value
2023-10-15T00:00:25.913Z,0.70
2023-10-15T00:02:53.039Z,0.70
2023-10-15T00:05:21.701Z,0.50
2023-10-15T00:07:50.942Z,0.93
2023-10-15T00:10:20.228Z,1.00
2023-10-15T00:12:49.108Z,0.82
2023-10-15T00:15:20.128Z,0.77
2023-10-15T00:17:48.583Z,0.70
2023-10-15T00:20:19.165Z,0.93
2023-10-15T00:22:46.634Z,0.60
2023-10-15T00:25:15.362Z,0.80
2023-10-15T00:27:43.583Z,0.50
2023-10-15T00:30:14.457Z,1.10
2023-10-15T00:32:44.272Z,0.80
2023-10-15T00:35:15.310Z,0.80
2023-10-15T00:37:42.755Z,1.13
2023-10-15T00:40:17.661Z,0.90
2023-10-15T00:42:48.036Z,1.00
2023-10-15T00:45:21.825Z,0.90
2023-10-15T00:48:04.289Z,1.27
2023-10-15T00:50:32.902Z,0.73
2023-10-15T00:53:07.447Z,1.27
2023-10-15T00:55:38.926Z,1.02
2023-10-15T00:58:09.306Z,0.60
2023-10-15T01:00:54.706Z,0.90
2023-10-15T01:03:32.112Z,0.82
2023-10-15T01:06:05.355Z,0.60
2023-10-15T01:08:36.355Z,0.90
2023-10-15T01:11:10.547Z,1.00
2023-10-15T01:13:38.861Z,1.00
2023-10-15T01:16:09.830Z,0.50
2023-10-15T01:18:37.955Z,1.00
2023-10-15T01:21:08.413Z,0.60
2023-10-15T01:23:58.024Z,0.75
2023-10-15T01:26:25.087Z,0.50
2023-10-15T01:28:54.837Z,0.80
2023-10-15T01:31:21.504Z,0.63
2023-10-15T01:33:48.623Z,1.08
2023-10-15T01:36:19.685Z,0.85
2023-10-15T01:38:47.040Z,0.85
2023-10-15T01:41:14.889Z,0.57
2023-10-15T01:43:42.212Z,0.60
2023-10-15T01:46:11.824Z,0.50
2023-10-15T01:48:42.443Z,0.68
2023-10-15T01:51:09.075Z,0.82
2023-10-15T01:53:35.736Z,0.70
2023-10-15T01:56:05.852Z,0.77
2023-10-15T01:58:33.687Z,0.75
2023-10-15T02:01:32.897Z,0.55
2023-10-15T02:04:00.059Z,0.60
2023-10-15T02:06:26.727Z,0.70
2023-10-15T02:08:53.310Z,0.77
2023-10-15T02:11:23.069Z,0.80
2023-10-15T02:13:50.640Z,0.60
2023-10-15T02:16:19.012Z,0.60
2023-10-15T02:18:46.555Z,0.50
2023-10-15T02:21:17.627Z,0.95
2023-10-15T02:23:53.982Z,0.70
2023-10-15T02:26:31.202Z,0.63
2023-10-15T02:29:08.005Z,0.60
2023-10-15T02:31:42.791Z,0.60
2023-10-15T02:34:22.273Z,0.90
2023-10-15T02:36:48.982Z,0.80
2023-10-15T02:39:15.569Z,0.80
2023-10-15T02:41:42.641Z,0.50
2023-10-15T02:44:17.059Z,0.50
2023-10-15T02:46:51.007Z,0.57
2023-10-15T02:49:18.355Z,1.10
2023-10-15T02:51:47.013Z,1.02
2023-10-15T02:54:20.396Z,1.00
2023-10-15T02:59:17.283Z,1.38
2023-10-15T03:01:47.346Z,1.00
2023-10-15T03:04:18.386Z,1.10
2023-10-15T03:06:49.685Z,0.93
2023-10-15T03:09:19.615Z,0.98
2023-10-15T03:11:51.682Z,1.17
2023-10-15T03:14:18.264Z,1.02
2023-10-15T03:16:45.629Z,0.82
2023-10-15T03:19:20.200Z,1.10
2023-10-15T03:21:47.059Z,1.20
2023-10-15T03:24:18.845Z,0.90
2023-10-15T03:26:48.929Z,1.30
2023-10-15T03:29:16.194Z,0.93
2023-10-15T03:32:03.656Z,0.98
2023-10-15T03:34:30.414Z,0.82
2023-10-15T03:36:59.845Z,0.85
2023-10-15T03:39:32.948Z,0.70
2023-10-15T03:42:12.563Z,0.90
2023-10-15T03:44:48.665Z,1.15
2023-10-15T03:47:17.340Z,1.00
2023-10-15T03:49:47.457Z,1.23
2023-10-15T03:52:23.626Z,0.80
2023-10-15T03:54:51.358Z,0.88
2023-10-15T03:57:19.256Z,1.02
2023-10-15T03:59:47.871Z,1.20
2023-10-15T04:02:24.368Z,0.85
2023-10-15T04:05:13.677Z,1.40
2023-10-15T04:07:48.353Z,0.80
2023-10-15T04:10:16.296Z,0.60
2023-10-15T04:12:44.779Z,0.77
2023-10-15T04:15:18.666Z,0.70
2023-10-15T04:17:46.713Z,1.05
2023-10-15T04:20:16.375Z,0.70
2023-10-15T04:22:48.348Z,1.02
2023-10-15T04:25:27.919Z,1.00
2023-10-15T04:27:55.878Z,1.05
2023-10-15T04:30:23.986Z,0.95
2023-10-15T04:32:50.580Z,1.17
2023-10-15T04:35:26.558Z,0.80
2023-10-15T04:37:59.414Z,0.90
2023-10-15T04:40:26.145Z,1.13
2023-10-15T04:42:53.047Z,0.88
2023-10-15T04:45:41.658Z,0.93
2023-10-15T04:48:14.419Z,0.70
2023-10-15T04:50:44.550Z,1.13
2023-10-15T04:53:18.837Z,0.70
2023-10-15T04:55:45.478Z,0.73
2023-10-15T04:58:12.474Z,0.70
2023-10-15T05:00:43.522Z,0.50
2023-10-15T05:03:13.012Z,1.00
2023-10-15T05:05:39.675Z,0.80
2023-10-15T05:08:12.300Z,1.10
2023-10-15T05:10:51.302Z,1.58
2023-10-15T05:13:18.618Z,0.98
2023-10-15T05:15:46.382Z,1.15
2023-10-15T05:18:13.264Z,0.95
2023-10-15T05:20:39.847Z,1.55
2023-10-15T05:23:06.685Z,1.10
2023-10-15T05:25:33.681Z,0.90
2023-10-15T05:28:03.452Z,0.95
2023-10-15T05:30:30.297Z,1.17
2023-10-15T05:32:57.063Z,1.00
2023-10-15T05:35:24.969Z,0.80
2023-10-15T05:37:51.604Z,1.05
2023-10-15T05:40:18.191Z,0.70
2023-10-15T05:42:44.918Z,1.00
2023-10-15T05:45:11.615Z,0.70
2023-10-15T05:47:38.317Z,0.50
2023-10-15T05:50:08.204Z,0.80
2023-10-15T05:52:34.824Z,0.80
2023-10-15T05:55:02.457Z,0.65
2023-10-15T05:57:29.863Z,0.80
2023-10-15T05:59:57.361Z,1.85
2023-10-15T06:02:24.671Z,0.75
2023-10-15T06:04:51.329Z,0.60
2023-10-15T06:07:17.884Z,0.98
2023-10-15T06:09:45.790Z,0.70
2023-10-15T06:12:14.349Z,0.47
2023-10-15T06:14:41.318Z,0.50
2023-10-15T06:17:08.507Z,0.55
2023-10-15T06:19:35.804Z,0.95
2023-10-15T06:22:02.879Z,0.55
2023-10-15T06:24:29.482Z,0.35
2023-10-15T06:26:56.068Z,0.88
2023-10-15T06:29:22.693Z,0.30
2023-10-15T06:31:49.286Z,1.10
2023-10-15T06:34:17.278Z,0.75
2023-10-15T06:36:44.060Z,0.60
2023-10-15T06:39:10.736Z,0.82
2023-10-15T06:41:37.886Z,0.65
2023-10-15T06:44:04.989Z,0.70
2023-10-15T06:46:32.742Z,0.60
2023-10-15T06:48:59.674Z,0.70
2023-10-15T06:51:27.542Z,1.00
2023-10-15T06:53:54.311Z,0.77
2023-10-15T06:56:20.959Z,1.17
2023-10-15T06:58:48.742Z,0.70
2023-10-15T07:01:15.551Z,0.65
2023-10-15T07:03:42.252Z,1.23
2023-10-15T07:06:09.947Z,0.77
2023-10-15T07:08:36.745Z,0.70
2023-10-15T07:11:06.390Z,0.73
2023-10-15T07:13:33.439Z,1.10
2023-10-15T07:16:01.893Z,0.50
2023-10-15T07:18:28.746Z,1.02
2023-10-15T07:20:55.985Z,0.50
2023-10-15T07:23:22.548Z,1.02
2023-10-15T07:25:49.213Z,0.70
2023-10-15T07:28:15.831Z,0.77
2023-10-15T07:30:42.401Z,0.90
2023-10-15T07:33:09.744Z,0.57
2023-10-15T07:35:36.639Z,0.30
2023-10-15T07:38:04.095Z,0.47
2023-10-15T07:40:34.084Z,0.93
2023-10-15T07:43:01.722Z,1.05
2023-10-15T07:45:30.279Z,0.80
2023-10-15T07:48:01.022Z,0.70
2023-10-15T07:50:29.120Z,0.65
2023-10-15T07:52:56.499Z,0.82
2023-10-15T07:55:27.583Z,0.63
2023-10-15T07:57:54.935Z,0.73
2023-10-15T08:00:25.209Z,1.00
2023-10-15T08:02:59.127Z,0.95
2023-10-15T08:05:33.057Z,1.00
2023-10-15T08:08:02.253Z,0.88
2023-10-15T08:10:33.774Z,0.95
2023-10-15T08:13:02.995Z,0.98
2023-10-15T08:15:29.680Z,1.20
2023-10-15T08:17:58.463Z,1.00
2023-10-15T08:20:25.318Z,1.08
2023-10-15T08:22:51.963Z,0.73
2023-10-15T08:25:22.903Z,0.60
2023-10-15T08:27:50.234Z,0.80
2023-10-15T08:30:18.779Z,1.20
2023-10-15T08:32:47.040Z,1.10
2023-10-15T08:35:17.818Z,1.45
2023-10-15T08:37:45.719Z,1.15
2023-10-15T08:40:20.023Z,0.82
2023-10-15T08:43:18.556Z,0.90
2023-10-15T08:45:46.809Z,0.93
2023-10-15T08:48:14.970Z,0.70
2023-10-15T08:50:41.970Z,0.65
2023-10-15T08:53:09.445Z,1.48
2023-10-15T08:55:39.641Z,1.80
2023-10-15T08:58:08.602Z,1.63
2023-10-15T09:00:37.812Z,0.85
2023-10-15T09:03:05.045Z,1.30
2023-10-15T09:05:38.315Z,1.02
2023-10-15T09:08:09.474Z,0.80
2023-10-15T09:10:42.509Z,1.23
2023-10-15T09:13:21.133Z,1.08
2023-10-15T09:15:49.630Z,1.23
2023-10-15T09:18:17.411Z,0.65
2023-10-15T09:20:47.116Z,0.93
2023-10-15T09:23:14.044Z,0.95
2023-10-15T09:25:42.613Z,1.20
2023-10-15T09:28:09.456Z,0.90
2023-10-15T09:30:36.039Z,0.82
2023-10-15T09:33:02.681Z,0.82
2023-10-15T09:35:30.792Z,1.08
2023-10-15T09:37:58.089Z,0.70
2023-10-15T09:40:25.895Z,0.88
2023-10-15T09:42:55.156Z,0.90
2023-10-15T09:45:25.771Z,0.90
2023-10-15T09:47:58.747Z,0.95
2023-10-15T09:50:28.718Z,0.80
2023-10-15T09:53:02.469Z,0.90
2023-10-15T09:55:33.549Z,1.35
2023-10-15T09:58:12.193Z,0.63
2023-10-15T10:00:55.930Z,0.80
2023-10-15T10:03:50.387Z,0.88
2023-10-15T10:07:02.283Z,0.60
2023-10-15T10:09:38.116Z,0.90
2023-10-15T10:12:14.604Z,1.05
2023-10-15T10:15:02.708Z,1.10
2023-10-15T10:17:30.890Z,1.10
2023-10-15T10:19:57.957Z,0.75
2023-10-15T10:22:28.445Z,0.80
2023-10-15T10:24:56.146Z,1.02
2023-10-15T10:27:22.722Z,1.02
2023-10-15T10:30:15.923Z,0.95
2023-10-15T10:32:43.044Z,0.90
2023-10-15T10:35:20.111Z,1.48
2023-10-15T10:38:11.849Z,1.35
2023-10-15T10:41:19.414Z,1.20
2023-10-15T10:43:59.325Z,1.15
2023-10-15T10:46:42.638Z,0.82
2023-10-15T10:49:20.125Z,0.98
2023-10-15T10:52:16.303Z,1.02
2023-10-15T10:54:43.776Z,0.70
2023-10-15T10:57:14.036Z,0.43
2023-10-15T10:59:43.340Z,0.75
2023-10-15T11:02:17.600Z,0.60
2023-10-15T11:04:44.713Z,0.85
2023-10-15T11:07:12.609Z,0.70
2023-10-15T11:09:39.591Z,0.40
2023-10-15T11:12:13.596Z,0.75
2023-10-15T11:14:41.679Z,0.90
2023-10-15T11:17:11.585Z,1.50
2023-10-15T11:19:39.326Z,0.88
2023-10-15T11:22:06.936Z,1.15
2023-10-15T11:24:33.951Z,0.60
2023-10-15T11:27:01.134Z,0.95
2023-10-15T11:29:32.186Z,1.10
2023-10-15T11:31:59.970Z,0.70
2023-10-15T11:34:29.446Z,0.20
2023-10-15T11:36:57.754Z,0.60
2023-10-15T11:39:27.157Z,0.50
2023-10-15T11:41:57.463Z,0.60
2023-10-15T11:44:32.082Z,0.65
2023-10-15T11:47:10.447Z,0.75
2023-10-15T11:49:44.296Z,0.90
2023-10-15T11:52:16.794Z,0.38
2023-10-15T11:54:51.507Z,0.63
2023-10-15T11:57:26.481Z,0.80
2023-10-15T11:59:56.917Z,0.80
2023-10-15T12:02:25.605Z,0.55
2023-10-15T12:04:53.413Z,0.80
2023-10-15T12:07:23.036Z,0.80
2023-10-15T12:09:50.770Z,0.80
2023-10-15T12:12:19.307Z,0.55
2023-10-15T12:14:46.160Z,1.33
2023-10-15T12:17:14.140Z,0.40
2023-10-15T12:19:42.831Z,0.60
2023-10-15T12:22:13.472Z,0.70
2023-10-15T12:24:41.672Z,0.80
2023-10-15T12:27:08.272Z,0.60
2023-10-15T12:29:34.888Z,1.00
2023-10-15T12:32:01.562Z,0.80
2023-10-15T12:34:28.180Z,0.63
2023-10-15T12:36:54.839Z,0.90
2023-10-15T12:39:28.645Z,0.80
2023-10-15T12:41:55.650Z,0.90
2023-10-15T12:44:24.084Z,0.85
2023-10-15T12:46:52.305Z,0.80
2023-10-15T12:49:20.647Z,1.08
2023-10-15T12:51:47.678Z,0.90
2023-10-15T12:54:14.897Z,0.70
2023-10-15T12:56:41.647Z,1.33
2023-10-15T12:59:08.381Z,0.88
2023-10-15T13:01:35.540Z,0.75
2023-10-15T13:04:02.220Z,0.77
2023-10-15T13:06:28.809Z,0.70
2023-10-15T13:08:57.065Z,0.77
2023-10-15T13:11:24.248Z,0.82
2023-10-15T13:13:50.966Z,0.77
2023-10-15T13:16:19.518Z,0.47
2023-10-15T13:18:47.311Z,0.88
2023-10-15T13:21:15.530Z,1.15
2023-10-15T13:23:42.255Z,0.90
2023-10-15T13:26:09.932Z,0.85
2023-10-15T13:28:37.153Z,1.20
2023-10-15T13:31:04.264Z,1.10
2023-10-15T13:33:31.837Z,0.52
2023-10-15T13:35:59.058Z,1.05
2023-10-15T13:38:27.128Z,1.05
2023-10-15T13:40:53.977Z,0.70
2023-10-15T13:43:20.935Z,0.82
2023-10-15T13:45:47.577Z,0.80
2023-10-15T13:48:14.333Z,1.05
2023-10-15T13:50:41.180Z,0.90
2023-10-15T13:53:07.815Z,0.80
2023-10-15T13:55:34.493Z,0.90
2023-10-15T13:58:01.292Z,0.93
2023-10-15T14:00:29.341Z,1.10
2023-10-15T14:02:57.817Z,1.45
2023-10-15T14:05:26.865Z,1.70
2023-10-15T14:07:55.459Z,1.50
2023-10-15T14:10:22.427Z,1.20
2023-10-15T14:12:51.796Z,0.93
2023-10-15T14:15:21.610Z,1.38
2023-10-15T14:17:48.301Z,1.40
2023-10-15T14:20:19.731Z,1.10
2023-10-15T14:22:47.382Z,1.17
2023-10-15T14:25:14.843Z,0.80
2023-10-15T14:27:41.773Z,0.70
2023-10-15T14:30:08.961Z,1.35
2023-10-15T14:32:36.251Z,0.68
2023-10-15T14:35:06.562Z,0.82
2023-10-15T14:37:33.963Z,1.00
2023-10-15T14:40:01.472Z,0.82
2023-10-15T14:42:28.307Z,0.70
2023-10-15T14:44:55.418Z,1.00
2023-10-15T14:47:22.320Z,0.90
2023-10-15T14:49:49.078Z,1.35
2023-10-15T14:52:15.683Z,1.02
2023-10-15T14:54:42.408Z,0.98
2023-10-15T14:57:16.556Z,1.50
2023-10-15T14:59:43.202Z,1.40
2023-10-15T15:02:11.452Z,1.40
2023-10-15T15:04:38.279Z,1.25
2023-10-15T15:07:04.881Z,2.33
2023-10-15T15:09:31.450Z,1.25
2023-10-15T15:11:58.423Z,1.73
2023-10-15T15:14:25.182Z,3.38
2023-10-15T15:16:52.145Z,3.60
2023-10-15T15:19:19.238Z,1.60
2023-10-15T15:21:46.008Z,2.08
2023-10-15T15:24:16.910Z,2.70
2023-10-15T15:26:45.160Z,2.95
2023-10-15T15:29:14.721Z,1.25
2023-10-15T15:31:41.950Z,1.25
2023-10-15T15:34:09.706Z,1.30
2023-10-15T15:36:36.253Z,2.28
2023-10-15T15:39:04.985Z,1.13
2023-10-15T15:41:33.821Z,1.33
2023-10-15T15:44:01.616Z,1.20
2023-10-15T15:46:29.357Z,1.10
2023-10-15T15:48:57.618Z,0.80
2023-10-15T15:51:24.239Z,1.10
2023-10-15T15:53:51.993Z,1.20
2023-10-15T15:56:18.756Z,1.55
2023-10-15T15:58:46.969Z,1.65
2023-10-15T16:01:37.595Z,0.95
2023-10-15T16:04:10.621Z,1.10
2023-10-15T16:06:37.314Z,0.80
2023-10-15T16:09:04.040Z,0.90
2023-10-15T16:11:31.488Z,1.05
2023-10-15T16:13:58.507Z,0.90
2023-10-15T16:16:26.109Z,0.63
2023-10-15T16:18:53.578Z,0.70
2023-10-15T16:21:20.228Z,1.15
2023-10-15T16:23:46.861Z,1.00
2023-10-15T16:26:13.981Z,0.80
2023-10-15T16:28:40.753Z,0.68
2023-10-15T16:31:07.441Z,0.80
2023-10-15T16:33:34.077Z,0.70
2023-10-15T16:36:00.613Z,0.85
2023-10-15T16:38:28.066Z,1.15
2023-10-15T16:40:54.695Z,0.77
2023-10-15T16:43:21.289Z,0.70
2023-10-15T16:45:50.808Z,0.88
2023-10-15T16:48:17.760Z,0.90
2023-10-15T16:50:44.536Z,0.90
2023-10-15T16:53:14.038Z,0.90
2023-10-15T16:55:41.679Z,1.10
2023-10-15T16:58:08.554Z,0.95
2023-10-15T17:00:35.669Z,1.08
2023-10-15T17:03:05.566Z,0.90
2023-10-15T17:05:32.368Z,0.80
2023-10-15T17:07:59.556Z,1.10
2023-10-15T17:10:26.135Z,1.27
2023-10-15T17:12:53.267Z,1.13
2023-10-15T17:15:19.893Z,0.80
2023-10-15T17:17:46.542Z,0.90
2023-10-15T17:20:17.063Z,0.88
2023-10-15T17:22:48.755Z,0.93
2023-10-15T17:25:15.447Z,0.88
2023-10-15T17:27:42.024Z,0.70
2023-10-15T17:30:18.395Z,0.55
2023-10-15T17:32:46.130Z,0.60
2023-10-15T17:35:13.130Z,0.50
2023-10-15T17:40:27.535Z,0.68
2023-10-15T17:42:54.289Z,0.60
2023-10-15T17:45:24.589Z,0.60
2023-10-15T17:47:51.395Z,0.40
2023-10-15T17:48:02.823Z,0.50
2023-10-15T17:50:18.098Z,0.50
2023-10-15T17:52:44.705Z,0.65
2023-10-15T17:55:11.412Z,0.60
2023-10-15T17:57:38.048Z,0.57
2023-10-15T18:00:12.782Z,0.40
2023-10-15T18:02:39.650Z,0.40
2023-10-15T18:05:06.496Z,0.70
2023-10-15T18:07:33.120Z,0.40
2023-10-15T18:09:59.724Z,0.68
2023-10-15T18:12:27.007Z,0.55
2023-10-15T18:14:54.989Z,0.45
2023-10-15T18:17:22.153Z,0.68
2023-10-15T18:19:50.964Z,0.47
2023-10-15T18:22:17.828Z,0.50
2023-10-15T18:24:44.929Z,0.50
2023-10-15T18:27:11.611Z,0.50
2023-10-15T18:29:38.261Z,0.60
2023-10-15T18:32:06.672Z,0.80
2023-10-15T18:34:33.522Z,0.40
2023-10-15T18:37:00.155Z,0.50
2023-10-15T18:39:26.846Z,0.40
2023-10-15T18:41:53.477Z,0.57
2023-10-15T18:44:21.024Z,0.40
2023-10-15T18:46:48.882Z,0.40
2023-10-15T18:49:16.108Z,0.40
2023-10-15T18:51:42.768Z,0.40
2023-10-15T18:54:10.498Z,0.38
2023-10-15T18:56:37.396Z,0.55
2023-10-15T18:59:04.458Z,0.50
2023-10-15T19:01:33.035Z,0.47
2023-10-15T19:04:00.224Z,0.50
2023-10-15T19:06:26.985Z,0.38
2023-10-15T19:08:54.035Z,0.65
2023-10-15T19:11:20.654Z,0.50
2023-10-15T19:13:47.247Z,0.50
2023-10-15T19:16:13.776Z,0.40
2023-10-15T19:18:45.836Z,0.43
2023-10-15T19:21:13.495Z,0.60
2023-10-15T19:23:40.469Z,0.40
2023-10-15T19:26:08.020Z,0.40
2023-10-15T19:28:35.516Z,0.77
2023-10-15T19:31:03.348Z,0.30
2023-10-15T19:33:31.842Z,0.30
2023-10-15T19:36:02.349Z,0.30
2023-10-15T19:38:31.238Z,0.40
2023-10-15T19:41:01.676Z,0.55
2023-10-15T19:43:32.080Z,0.50
2023-10-15T19:45:59.052Z,0.60
2023-10-15T19:48:25.930Z,0.55
2023-10-15T19:50:53.917Z,0.55
2023-10-15T19:53:27.500Z,0.50
2023-10-15T19:58:21.092Z,0.68
2023-10-15T20:00:50.616Z,1.10
2023-10-15T20:03:18.406Z,0.68
2023-10-15T20:05:47.005Z,0.50
2023-10-15T20:08:15.885Z,0.50
2023-10-15T20:10:43.594Z,0.50
2023-10-15T20:13:11.172Z,0.43
2023-10-15T20:15:39.247Z,0.50
2023-10-15T20:18:06.241Z,0.50
2023-10-15T20:20:32.956Z,0.50
2023-10-15T20:22:59.552Z,0.40
2023-10-15T20:25:26.140Z,0.40
2023-10-15T20:27:52.960Z,0.38
2023-10-15T20:30:19.689Z,0.30
2023-10-15T20:32:55.613Z,0.35
2023-10-15T20:35:26.026Z,0.47
2023-10-15T20:37:53.183Z,0.50
2023-10-15T20:40:21.841Z,0.30
2023-10-15T20:42:49.916Z,0.35
2023-10-15T20:45:18.923Z,0.30
2023-10-15T20:47:47.565Z,0.38
2023-10-15T20:50:16.406Z,0.40
2023-10-15T20:52:45.389Z,0.30
2023-10-15T20:55:12.799Z,0.28
2023-10-15T20:57:40.796Z,0.30
2023-10-15T21:00:12.127Z,0.30
2023-10-15T21:02:43.284Z,0.47
2023-10-15T21:05:11.505Z,0.30
2023-10-15T21:07:40.335Z,0.40
2023-10-15T21:10:08.685Z,0.40
2023-10-15T21:12:35.776Z,0.50
2023-10-15T21:15:05.220Z,0.82
2023-10-15T21:17:31.989Z,0.45
2023-10-15T21:19:58.746Z,0.65
2023-10-15T21:22:25.353Z,0.50
2023-10-15T21:24:52.139Z,0.60
2023-10-15T21:27:20.587Z,0.40
2023-10-15T21:29:47.615Z,0.50
2023-10-15T21:32:14.339Z,0.70
2023-10-15T21:34:41.373Z,0.30
2023-10-15T21:37:08.028Z,0.70
2023-10-15T21:39:34.779Z,0.47
2023-10-15T21:42:01.506Z,0.63
2023-10-15T21:44:28.926Z,0.60
2023-10-15T21:46:56.463Z,0.55
2023-10-15T21:49:23.165Z,0.65
2023-10-15T21:51:49.785Z,0.63
2023-10-15T21:54:17.014Z,0.57
2023-10-15T21:56:43.983Z,0.68
2023-10-15T21:59:13.698Z,0.70
2023-10-15T22:01:40.487Z,0.70
2023-10-15T22:04:08.061Z,0.60
2023-10-15T22:06:36.732Z,0.50
2023-10-15T22:09:12.353Z,0.70
2023-10-15T22:11:40.499Z,1.05
2023-10-15T22:14:08.241Z,0.70
2023-10-15T22:16:35.280Z,0.80
2023-10-15T22:19:07.090Z,0.82
2023-10-15T22:21:34.262Z,0.70
2023-10-15T22:24:06.952Z,0.60
2023-10-15T22:26:36.050Z,0.70
2023-10-15T22:29:07.589Z,0.90
2023-10-15T22:31:34.534Z,0.47
2023-10-15T22:34:01.539Z,0.70
2023-10-15T22:36:28.126Z,0.60
2023-10-15T22:38:54.693Z,0.85
2023-10-15T22:41:22.029Z,0.88
2023-10-15T22:43:48.638Z,0.63
2023-10-15T22:46:15.324Z,0.80
2023-10-15T22:48:41.961Z,0.80
2023-10-15T22:51:08.736Z,1.02
2023-10-15T22:53:35.479Z,0.70
2023-10-15T22:56:02.082Z,0.85
2023-10-15T22:58:28.739Z,0.80
2023-10-15T23:00:55.971Z,0.88
2023-10-15T23:03:23.099Z,0.85
2023-10-15T23:05:51.189Z,0.73
2023-10-15T23:08:17.785Z,0.80
2023-10-15T23:10:44.313Z,0.50
2023-10-15T23:13:11.241Z,0.70
2023-10-15T23:15:41.728Z,0.70
2023-10-15T23:18:10.378Z,0.70
2023-10-15T23:20:41.600Z,0.90
2023-10-15T23:23:19.181Z,0.75
2023-10-15T23:25:46.116Z,0.80
2023-10-15T23:28:13.010Z,0.70
2023-10-15T23:30:45.648Z,0.60
2023-10-15T23:33:12.684Z,0.77
2023-10-15T23:35:39.467Z,0.82
2023-10-15T23:38:08.567Z,0.50
2023-10-15T23:40:38.806Z,0.60
2023-10-15T23:43:12.013Z,0.60
2023-10-15T23:45:39.462Z,1.00
2023-10-15T23:48:12.234Z,0.85
2023-10-15T23:50:45.915Z,0.80
2023-10-15T23:53:20.688Z,0.80
2023-10-15T23:55:48.236Z,0.68
2023-10-15T23:58:14.794Z,0.30
